TAF KMTN
KMTN 270541Z 2706/2806 29016G22KT P6SM BKN045 FM271500 30015G28KT P6SM FEW050 FM272100 28010G20KT P6SM SCT140 FM272300 27006KT P6SM BKN100 FM280500 35004KT P6SM BKN060 AMD NOT SKED=
METAR KMTN
WC KMTN
WS KMTN
WV KMTN